sensor_id;sensor_type;location;lat;lon;timestamp;temperature;humidity
35682;DHT22;21805;51.022;4.782;2023-04-03T00:00:14;4.90;99.90
35682;DHT22;21805;51.022;4.782;2023-04-03T00:02:58;4.80;99.90
35682;DHT22;21805;51.022;4.782;2023-04-03T00:05:39;4.90;99.90
35682;DHT22;21805;51.022;4.782;2023-04-03T00:14:47;4.80;99.90
35682;DHT22;21805;51.022;4.782;2023-04-03T00:17:27;4.60;99.90
35682;DHT22;21805;51.022;4.782;2023-04-03T00:19:59;4.70;99.90
35682;DHT22;21805;51.022;4.782;2023-04-03T00:28:45;4.60;99.90
35682;DHT22;21805;51.022;4.782;2023-04-03T00:31:18;4.60;99.90
35682;DHT22;21805;51.022;4.782;2023-04-03T00:33:44;4.70;99.90
35682;DHT22;21805;51.022;4.782;2023-04-03T00:42:08;4.60;99.90
35682;DHT22;21805;51.022;4.782;2023-04-03T00:51:15;4.40;99.90
35682;DHT22;21805;51.022;4.782;2023-04-03T00:59:18;4.40;99.90
35682;DHT22;21805;51.022;4.782;2023-04-03T01:02:01;4.40;99.90
35682;DHT22;21805;51.022;4.782;2023-04-03T01:07:23;4.60;99.90
35682;DHT22;21805;51.022;4.782;2023-04-03T01:10:11;4.50;99.90
35682;DHT22;21805;51.022;4.782;2023-04-03T01:12:53;4.60;99.90
35682;DHT22;21805;51.022;4.782;2023-04-03T01:15:27;4.60;99.90
35682;DHT22;21805;51.022;4.782;2023-04-03T01:18:12;4.60;99.90
35682;DHT22;21805;51.022;4.782;2023-04-03T01:23:38;4.60;99.90
35682;DHT22;21805;51.022;4.782;2023-04-03T01:32:07;4.50;99.90
35682;DHT22;21805;51.022;4.782;2023-04-03T01:34:47;4.50;99.90
35682;DHT22;21805;51.022;4.782;2023-04-03T01:37:13;4.50;99.90
35682;DHT22;21805;51.022;4.782;2023-04-03T01:39:41;4.50;99.90
35682;DHT22;21805;51.022;4.782;2023-04-03T01:42:14;4.40;99.90
35682;DHT22;21805;51.022;4.782;2023-04-03T01:47:10;4.30;99.90
35682;DHT22;21805;51.022;4.782;2023-04-03T01:49:55;4.30;99.90
35682;DHT22;21805;51.022;4.782;2023-04-03T01:52:26;4.30;99.90
35682;DHT22;21805;51.022;4.782;2023-04-03T01:54:55;4.30;99.90
35682;DHT22;21805;51.022;4.782;2023-04-03T01:57:25;4.20;99.90
35682;DHT22;21805;51.022;4.782;2023-04-03T01:59:53;4.30;99.90
35682;DHT22;21805;51.022;4.782;2023-04-03T02:02:21;4.20;99.90
35682;DHT22;21805;51.022;4.782;2023-04-03T02:04:56;4.10;99.90
35682;DHT22;21805;51.022;4.782;2023-04-03T02:07:22;4.20;99.90
35682;DHT22;21805;51.022;4.782;2023-04-03T02:10:05;4.20;99.90
35682;DHT22;21805;51.022;4.782;2023-04-03T02:15:02;4.10;99.90
35682;DHT22;21805;51.022;4.782;2023-04-03T02:19:58;4.10;99.90
35682;DHT22;21805;51.022;4.782;2023-04-03T02:22:32;4.10;99.90
35682;DHT22;21805;51.022;4.782;2023-04-03T02:27:30;3.90;99.90
35682;DHT22;21805;51.022;4.782;2023-04-03T02:29:57;4.00;99.90
35682;DHT22;21805;51.022;4.782;2023-04-03T02:32:23;3.90;99.90
35682;DHT22;21805;51.022;4.782;2023-04-03T02:34:48;3.90;99.90
35682;DHT22;21805;51.022;4.782;2023-04-03T02:37:15;3.90;99.90
35682;DHT22;21805;51.022;4.782;2023-04-03T02:39:42;3.80;99.90
35682;DHT22;21805;51.022;4.782;2023-04-03T02:42:14;3.90;99.90
35682;DHT22;21805;51.022;4.782;2023-04-03T02:44:45;3.90;99.90
35682;DHT22;21805;51.022;4.782;2023-04-03T02:47:15;3.80;99.90
35682;DHT22;21805;51.022;4.782;2023-04-03T02:49:59;3.80;99.90
35682;DHT22;21805;51.022;4.782;2023-04-03T02:52:31;3.80;99.90
35682;DHT22;21805;51.022;4.782;2023-04-03T02:58:11;3.90;99.90
35682;DHT22;21805;51.022;4.782;2023-04-03T03:00:42;3.80;99.90
35682;DHT22;21805;51.022;4.782;2023-04-03T03:03:08;3.70;99.90
35682;DHT22;21805;51.022;4.782;2023-04-03T03:05:45;3.70;99.90
35682;DHT22;21805;51.022;4.782;2023-04-03T03:08:13;3.60;99.90
35682;DHT22;21805;51.022;4.782;2023-04-03T03:10:41;3.70;99.90
35682;DHT22;21805;51.022;4.782;2023-04-03T03:13:14;3.60;99.90
35682;DHT22;21805;51.022;4.782;2023-04-03T03:15:52;3.60;99.90
35682;DHT22;21805;51.022;4.782;2023-04-03T03:18:28;3.60;99.90
35682;DHT22;21805;51.022;4.782;2023-04-03T03:20:57;3.70;99.90
35682;DHT22;21805;51.022;4.782;2023-04-03T03:23:30;3.70;99.90
35682;DHT22;21805;51.022;4.782;2023-04-03T03:25:58;3.60;99.90
35682;DHT22;21805;51.022;4.782;2023-04-03T03:28:27;3.60;99.90
35682;DHT22;21805;51.022;4.782;2023-04-03T03:33:22;3.60;99.90
35682;DHT22;21805;51.022;4.782;2023-04-03T03:35:49;3.60;99.90
35682;DHT22;21805;51.022;4.782;2023-04-03T03:38:17;3.50;99.90
35682;DHT22;21805;51.022;4.782;2023-04-03T03:40:44;3.40;99.90
35682;DHT22;21805;51.022;4.782;2023-04-03T03:45:46;3.40;99.90
35682;DHT22;21805;51.022;4.782;2023-04-03T03:48:14;3.30;99.90
35682;DHT22;21805;51.022;4.782;2023-04-03T03:50:40;3.40;99.90
35682;DHT22;21805;51.022;4.782;2023-04-03T03:53:06;3.30;99.90
35682;DHT22;21805;51.022;4.782;2023-04-03T03:55:34;3.40;99.90
35682;DHT22;21805;51.022;4.782;2023-04-03T03:58:00;3.50;99.90
35682;DHT22;21805;51.022;4.782;2023-04-03T04:00:29;3.50;99.90
35682;DHT22;21805;51.022;4.782;2023-04-03T04:02:57;3.40;99.90
35682;DHT22;21805;51.022;4.782;2023-04-03T04:05:23;3.30;99.90
35682;DHT22;21805;51.022;4.782;2023-04-03T04:10:22;3.40;99.90
35682;DHT22;21805;51.022;4.782;2023-04-03T04:12:49;3.40;99.90
35682;DHT22;21805;51.022;4.782;2023-04-03T04:15:19;3.30;99.90
35682;DHT22;21805;51.022;4.782;2023-04-03T04:17:48;3.30;99.90
35682;DHT22;21805;51.022;4.782;2023-04-03T04:20:14;3.30;99.90
35682;DHT22;21805;51.022;4.782;2023-04-03T04:22:47;3.30;99.90
35682;DHT22;21805;51.022;4.782;2023-04-03T04:27:44;3.20;99.90
35682;DHT22;21805;51.022;4.782;2023-04-03T04:30:16;3.30;99.90
35682;DHT22;21805;51.022;4.782;2023-04-03T04:32:43;3.20;99.90
35682;DHT22;21805;51.022;4.782;2023-04-03T04:35:17;3.20;99.90
35682;DHT22;21805;51.022;4.782;2023-04-03T04:37:43;3.20;99.90
35682;DHT22;21805;51.022;4.782;2023-04-03T04:40:09;3.20;99.90
35682;DHT22;21805;51.022;4.782;2023-04-03T04:42:38;3.20;99.90
35682;DHT22;21805;51.022;4.782;2023-04-03T04:45:08;3.20;99.90
35682;DHT22;21805;51.022;4.782;2023-04-03T04:47:39;3.20;99.90
35682;DHT22;21805;51.022;4.782;2023-04-03T04:52:38;3.20;99.90
35682;DHT22;21805;51.022;4.782;2023-04-03T04:55:05;3.20;99.90
35682;DHT22;21805;51.022;4.782;2023-04-03T04:57:31;3.10;99.90
35682;DHT22;21805;51.022;4.782;2023-04-03T04:59:57;3.10;99.90
35682;DHT22;21805;51.022;4.782;2023-04-03T05:02:23;3.10;99.90
35682;DHT22;21805;51.022;4.782;2023-04-03T05:04:48;3.10;99.90
35682;DHT22;21805;51.022;4.782;2023-04-03T05:07:17;3.00;99.90
35682;DHT22;21805;51.022;4.782;2023-04-03T05:09:44;3.00;99.90
35682;DHT22;21805;51.022;4.782;2023-04-03T05:12:11;2.90;99.90
35682;DHT22;21805;51.022;4.782;2023-04-03T05:14:37;2.90;99.90
35682;DHT22;21805;51.022;4.782;2023-04-03T05:17:09;2.90;99.90
35682;DHT22;21805;51.022;4.782;2023-04-03T05:19:38;2.80;99.90
35682;DHT22;21805;51.022;4.782;2023-04-03T05:24:33;2.90;99.90
35682;DHT22;21805;51.022;4.782;2023-04-03T05:27:00;2.80;99.90
35682;DHT22;21805;51.022;4.782;2023-04-03T05:29:25;2.80;99.90
35682;DHT22;21805;51.022;4.782;2023-04-03T05:31:51;2.80;99.90
35682;DHT22;21805;51.022;4.782;2023-04-03T05:34:18;2.80;99.90
35682;DHT22;21805;51.022;4.782;2023-04-03T05:36:44;2.80;99.90
35682;DHT22;21805;51.022;4.782;2023-04-03T05:44:07;2.80;99.90
35682;DHT22;21805;51.022;4.782;2023-04-03T05:46:34;2.80;99.90
35682;DHT22;21805;51.022;4.782;2023-04-03T05:49:02;2.90;99.90
35682;DHT22;21805;51.022;4.782;2023-04-03T05:51:33;2.90;99.90
35682;DHT22;21805;51.022;4.782;2023-04-03T05:56:39;3.10;99.90
35682;DHT22;21805;51.022;4.782;2023-04-03T05:59:12;3.20;99.90
35682;DHT22;21805;51.022;4.782;2023-04-03T06:01:41;3.30;99.90
35682;DHT22;21805;51.022;4.782;2023-04-03T06:04:17;3.40;99.90
35682;DHT22;21805;51.022;4.782;2023-04-03T06:09:13;3.90;99.90
35682;DHT22;21805;51.022;4.782;2023-04-03T06:14:38;4.00;99.90
35682;DHT22;21805;51.022;4.782;2023-04-03T06:17:12;4.00;99.90
35682;DHT22;21805;51.022;4.782;2023-04-03T06:19:39;4.00;99.90
35682;DHT22;21805;51.022;4.782;2023-04-03T06:22:19;4.10;99.90
35682;DHT22;21805;51.022;4.782;2023-04-03T06:24:55;4.30;99.90
35682;DHT22;21805;51.022;4.782;2023-04-03T06:27:31;4.40;99.90
35682;DHT22;21805;51.022;4.782;2023-04-03T06:33:00;4.60;99.90
35682;DHT22;21805;51.022;4.782;2023-04-03T06:35:41;4.80;99.90
35682;DHT22;21805;51.022;4.782;2023-04-03T06:38:18;4.80;99.90
35682;DHT22;21805;51.022;4.782;2023-04-03T13:09:36;13.70;91.50
35682;DHT22;21805;51.022;4.782;2023-04-03T13:12:10;14.10;90.90
35682;DHT22;21805;51.022;4.782;2023-04-03T17:29:39;11.00;91.20
35682;DHT22;21805;51.022;4.782;2023-04-03T17:32:16;10.90;91.60
35682;DHT22;21805;51.022;4.782;2023-04-03T17:37:47;10.70;91.80
35682;DHT22;21805;51.022;4.782;2023-04-03T17:40:19;10.70;92.00
35682;DHT22;21805;51.022;4.782;2023-04-03T17:42:45;10.60;92.20
35682;DHT22;21805;51.022;4.782;2023-04-03T17:45:20;10.60;92.00
35682;DHT22;21805;51.022;4.782;2023-04-03T17:50:17;10.40;92.90
35682;DHT22;21805;51.022;4.782;2023-04-03T17:55:53;10.50;93.10
35682;DHT22;21805;51.022;4.782;2023-04-03T17:58:21;10.50;93.60
35682;DHT22;21805;51.022;4.782;2023-04-03T18:00:56;10.30;93.20
35682;DHT22;21805;51.022;4.782;2023-04-03T18:03:40;10.30;93.20
35682;DHT22;21805;51.022;4.782;2023-04-03T18:06:22;10.30;93.20
35682;DHT22;21805;51.022;4.782;2023-04-03T18:08:57;10.30;92.90
35682;DHT22;21805;51.022;4.782;2023-04-03T18:11:31;10.30;92.60
35682;DHT22;21805;51.022;4.782;2023-04-03T18:14:05;10.20;93.10
35682;DHT22;21805;51.022;4.782;2023-04-03T18:16:43;10.00;93.40
35682;DHT22;21805;51.022;4.782;2023-04-03T18:33:36;9.90;94.50
35682;DHT22;21805;51.022;4.782;2023-04-03T18:36:10;9.90;94.90
35682;DHT22;21805;51.022;4.782;2023-04-03T18:38:55;9.90;94.90
35682;DHT22;21805;51.022;4.782;2023-04-03T18:44:50;9.70;95.20
35682;DHT22;21805;51.022;4.782;2023-04-03T18:50:23;9.60;95.30
35682;DHT22;21805;51.022;4.782;2023-04-03T18:58:35;9.50;96.00
35682;DHT22;21805;51.022;4.782;2023-04-03T19:07:08;9.30;96.20
35682;DHT22;21805;51.022;4.782;2023-04-03T19:12:42;9.20;96.50
35682;DHT22;21805;51.022;4.782;2023-04-03T19:17:54;9.20;96.40
35682;DHT22;21805;51.022;4.782;2023-04-03T19:28:48;9.10;96.60
35682;DHT22;21805;51.022;4.782;2023-04-03T19:33:47;8.70;97.40
35682;DHT22;21805;51.022;4.782;2023-04-03T19:36:17;8.70;97.70
35682;DHT22;21805;51.022;4.782;2023-04-03T19:38:43;8.60;97.60
35682;DHT22;21805;51.022;4.782;2023-04-03T19:41:11;8.60;97.80
35682;DHT22;21805;51.022;4.782;2023-04-03T19:47:18;8.50;98.00
35682;DHT22;21805;51.022;4.782;2023-04-03T19:53:18;8.40;98.00
35682;DHT22;21805;51.022;4.782;2023-04-03T19:58:52;8.40;98.40
35682;DHT22;21805;51.022;4.782;2023-04-03T20:01:20;8.40;98.50
35682;DHT22;21805;51.022;4.782;2023-04-03T20:04:04;8.50;98.60
35682;DHT22;21805;51.022;4.782;2023-04-03T20:16:10;8.30;99.00
35682;DHT22;21805;51.022;4.782;2023-04-03T20:21:15;8.30;99.20
35682;DHT22;21805;51.022;4.782;2023-04-03T20:23:44;8.20;99.40
35682;DHT22;21805;51.022;4.782;2023-04-03T20:26:22;8.10;99.50
35682;DHT22;21805;51.022;4.782;2023-04-03T20:28:53;8.10;99.60
35682;DHT22;21805;51.022;4.782;2023-04-03T20:31:21;8.10;99.50
35682;DHT22;21805;51.022;4.782;2023-04-03T20:33:55;8.00;99.60
35682;DHT22;21805;51.022;4.782;2023-04-03T20:36:37;8.10;99.80
35682;DHT22;21805;51.022;4.782;2023-04-03T20:41:34;7.90;99.90
35682;DHT22;21805;51.022;4.782;2023-04-03T20:44:02;7.80;99.90
35682;DHT22;21805;51.022;4.782;2023-04-03T20:46:28;7.70;99.90
35682;DHT22;21805;51.022;4.782;2023-04-03T20:48:55;7.60;99.90
35682;DHT22;21805;51.022;4.782;2023-04-03T20:54:26;7.70;99.90
35682;DHT22;21805;51.022;4.782;2023-04-03T20:56:55;7.70;99.90
35682;DHT22;21805;51.022;4.782;2023-04-03T20:59:31;7.70;99.90
35682;DHT22;21805;51.022;4.782;2023-04-03T21:02:01;7.70;99.90
35682;DHT22;21805;51.022;4.782;2023-04-03T21:04:39;7.80;99.90
35682;DHT22;21805;51.022;4.782;2023-04-03T21:21:05;7.60;99.90
35682;DHT22;21805;51.022;4.782;2023-04-03T21:26:36;7.40;99.90
35682;DHT22;21805;51.022;4.782;2023-04-03T21:29:06;7.30;99.90
35682;DHT22;21805;51.022;4.782;2023-04-03T21:37:25;7.40;99.90
35682;DHT22;21805;51.022;4.782;2023-04-03T21:47:48;7.20;99.90
35682;DHT22;21805;51.022;4.782;2023-04-03T21:50:32;7.20;99.90
35682;DHT22;21805;51.022;4.782;2023-04-03T21:53:02;7.20;99.90
35682;DHT22;21805;51.022;4.782;2023-04-03T21:55:34;7.20;99.90
35682;DHT22;21805;51.022;4.782;2023-04-03T21:58:03;7.10;99.90
35682;DHT22;21805;51.022;4.782;2023-04-03T22:00:36;7.10;99.90
35682;DHT22;21805;51.022;4.782;2023-04-03T22:03:02;7.10;99.90
35682;DHT22;21805;51.022;4.782;2023-04-03T22:05:30;7.10;99.90
35682;DHT22;21805;51.022;4.782;2023-04-03T22:07:56;7.00;99.90
35682;DHT22;21805;51.022;4.782;2023-04-03T22:10:23;6.90;99.90
35682;DHT22;21805;51.022;4.782;2023-04-03T22:12:49;7.00;99.90
35682;DHT22;21805;51.022;4.782;2023-04-03T22:15:15;6.80;99.90
35682;DHT22;21805;51.022;4.782;2023-04-03T22:17:45;6.80;99.90
35682;DHT22;21805;51.022;4.782;2023-04-03T22:20:11;6.80;99.90
35682;DHT22;21805;51.022;4.782;2023-04-03T22:22:37;6.90;99.90
35682;DHT22;21805;51.022;4.782;2023-04-03T22:25:03;6.80;99.90
35682;DHT22;21805;51.022;4.782;2023-04-03T22:27:32;6.60;99.90
35682;DHT22;21805;51.022;4.782;2023-04-03T22:30:02;6.70;99.90
35682;DHT22;21805;51.022;4.782;2023-04-03T22:32:29;6.70;99.90
35682;DHT22;21805;51.022;4.782;2023-04-03T22:34:55;6.70;99.90
35682;DHT22;21805;51.022;4.782;2023-04-03T22:37:21;6.60;99.90
35682;DHT22;21805;51.022;4.782;2023-04-03T22:39:53;6.50;99.90
35682;DHT22;21805;51.022;4.782;2023-04-03T22:42:18;6.50;99.90
35682;DHT22;21805;51.022;4.782;2023-04-03T22:44:45;6.50;99.90
35682;DHT22;21805;51.022;4.782;2023-04-03T22:47:17;6.40;99.90
35682;DHT22;21805;51.022;4.782;2023-04-03T22:49:46;6.50;99.90
35682;DHT22;21805;51.022;4.782;2023-04-03T22:52:12;6.30;99.90
35682;DHT22;21805;51.022;4.782;2023-04-03T22:54:50;6.40;99.90
35682;DHT22;21805;51.022;4.782;2023-04-03T22:59:47;6.30;99.90
35682;DHT22;21805;51.022;4.782;2023-04-03T23:02:13;6.40;99.90
35682;DHT22;21805;51.022;4.782;2023-04-03T23:04:44;6.30;99.90
35682;DHT22;21805;51.022;4.782;2023-04-03T23:07:32;6.30;99.90
35682;DHT22;21805;51.022;4.782;2023-04-03T23:10:03;6.40;99.90
35682;DHT22;21805;51.022;4.782;2023-04-03T23:12:36;6.40;99.90
35682;DHT22;21805;51.022;4.782;2023-04-03T23:15:03;6.40;99.90
35682;DHT22;21805;51.022;4.782;2023-04-03T23:20:15;6.40;99.90
35682;DHT22;21805;51.022;4.782;2023-04-03T23:22:43;6.40;99.90
35682;DHT22;21805;51.022;4.782;2023-04-03T23:25:10;6.40;99.90
35682;DHT22;21805;51.022;4.782;2023-04-03T23:27:39;6.40;99.90
35682;DHT22;21805;51.022;4.782;2023-04-03T23:30:12;6.40;99.90
35682;DHT22;21805;51.022;4.782;2023-04-03T23:32:37;6.30;99.90
35682;DHT22;21805;51.022;4.782;2023-04-03T23:35:03;6.30;99.90
35682;DHT22;21805;51.022;4.782;2023-04-03T23:37:34;6.30;99.90
35682;DHT22;21805;51.022;4.782;2023-04-03T23:40:01;6.30;99.90
35682;DHT22;21805;51.022;4.782;2023-04-03T23:42:26;6.30;99.90
35682;DHT22;21805;51.022;4.782;2023-04-03T23:44:54;6.30;99.90
35682;DHT22;21805;51.022;4.782;2023-04-03T23:47:24;6.40;99.90
35682;DHT22;21805;51.022;4.782;2023-04-03T23:50:06;6.40;99.90
35682;DHT22;21805;51.022;4.782;2023-04-03T23:52:36;6.30;99.90
35682;DHT22;21805;51.022;4.782;2023-04-03T23:55:01;6.30;99.90
35682;DHT22;21805;51.022;4.782;2023-04-03T23:57:28;6.30;99.90
